This is the latest recevied weather packets stored in our database for station/object DB0PET-13. If no packets are shown the sender has not sent any weather packets the latest 1 day(s).
| Time | Temp. | Humidity | Pressure | Rain* | Wind** | Luminosity | Snow |
|---|---|---|---|---|---|---|---|
| 1777967767 | 15.56° C | 81% | 1014.5 hPa | 0 mm | 0.45 m/s, 268° | - | - |
| 1777966810 | 15.56° C | 82% | 1014.5 hPa | 0 mm | 0 m/s | - | - |
| 1777965849 | 16.11° C | 79% | 1014.5 hPa | 0 mm | 0 m/s | - | - |
| 1777964890 | 15° C | 84% | 1014.7 hPa | 0 mm | 0 m/s | - | - |
| 1777963931 | 15° C | 84% | 1014.7 hPa | 0 mm | 0 m/s | - | - |
| 1777962969 | 13.89° C | 87% | 1014.7 hPa | 0 mm | 0 m/s | - | - |
| 1777962010 | 13.33° C | 89% | 1014.6 hPa | 0 mm | 0.45 m/s, 90° | - | - |
| 1777961099 | 13.33° C | 88% | 1014.6 hPa | 0 mm | 0 m/s | - | - |
| 1777961048 | 13.33° C | 88% | 1014.6 hPa | 0 mm | 0 m/s | - | - |
| 1777960089 | 12.78° C | 92% | 1014.8 hPa | 0 mm | 0 m/s | - | - |
| 1777959127 | 12.22° C | 93% | 1014.5 hPa | 0 mm | 0.45 m/s, 75° | - | - |
| 1777958170 | 12.22° C | 93% | 1014.8 hPa | 0 mm | 0.45 m/s, 40° | - | - |
| 1777957209 | 12.22° C | 93% | 1014.8 hPa | 0 mm | 0 m/s | - | - |
| 1777956249 | 12.22° C | 93% | 1015 hPa | 0 mm | 0 m/s | - | - |
| 1777955294 | 12.22° C | 93% | 1014.8 hPa | 0 mm | 0.45 m/s, 32° | - | - |
| 1777954329 | 12.22° C | 92% | 1014.7 hPa | 0 mm | 0 m/s | - | - |
| 1777953368 | 12.22° C | 91% | 1014.9 hPa | 0 mm | 0 m/s | - | - |
| 1777952409 | 12.22° C | 91% | 1015.1 hPa | 0 mm | 0 m/s | - | - |
| 1777951450 | 12.22° C | 91% | 1015.1 hPa | 0 mm | 0 m/s | - | - |
| 1777950492 | 12.22° C | 90% | 1015.4 hPa | 0 mm | 0 m/s | - | - |
| 1777949529 | 12.22° C | 90% | 1015.8 hPa | 0 mm | 0 m/s | - | - |
| 1777948815 | 12.22° C | 90% | 1015.7 hPa | 0 mm | 0.45 m/s, 340° | - | - |
| 1777948568 | 12.22° C | 90% | 1015.7 hPa | 0 mm | 0.45 m/s, 340° | - | - |
| 1777947609 | 12.22° C | 90% | 1015.7 hPa | 0 mm | 0.45 m/s, 55° | - | - |
| 1777946651 | 12.78° C | 88% | 1015.7 hPa | 0 mm | 0.89 m/s, 52° | - | - |
* Rain latest hour (hover to see other rain measurements)
** Current wind speed in m/s (hover to see current wind gust speed)